Latest Weather Observations for Geraldton Airport

IDW60801

Issued at 2:43 pm WST Tuesday 20 April 2021 (issued every 10 minutes, with the page automatically refreshed every 10 minutes)

About weather observations | Map of weather stations | Latest weather observations for WA | Other Formats
Station Details ID: 008315 Name: GERALDTON AIRPORT Lat: -28.80 Lon: 114.70 Height: 29.7 m
Data from the previous 72 hours. | See also: Recent months at Geraldton Airport
Date/Time
WST
Temp
°C
App
Temp
°C
Dew
Point
°C
Rel
Hum
%
Delta-T
°C
Wind Press
QNH
hPa
Press
MSL
hPa
Rain since
9am
mm
Dir  Spd
km/h
Gust
km/h
Spd
kts
Gust
kts
20/02:30pm 25.8 19.8 10.0 37 8.7 S 32 39 17 21 1016.9 1016.8 0.0
20/02:00pm 26.2 20.7 10.4 37 8.8 SSW 30 39 16 21 1016.9 1016.8 0.0
20/01:30pm 26.6 21.0 8.6 32 9.8 SSW 28 35 15 19 1017.1 1017.0 0.0
20/01:00pm 26.8 21.7 9.2 33 9.7 SSW 26 35 14 19 1017.3 1017.2 0.0
20/12:30pm 26.4 21.3 9.3 34 9.4 S 26 32 14 17 1017.8 1017.7 0.0
20/12:00pm 26.4 23.4 5.9 27 10.6 SE 11 20 6 11 1018.2 1018.1 0.0
20/11:30am 26.0 22.6 7.6 31 9.8 SSE 15 24 8 13 1018.5 1018.4 0.0
20/11:00am 25.0 22.5 9.7 38 8.4 SSE 13 19 7 10 1018.8 1018.7 0.0
20/10:30am 23.2 20.4 9.9 43 7.3 SE 15 20 8 11 1018.9 1018.8 0.0
20/10:00am 21.1 19.5 11.4 54 5.4 SSE 11 15 6 8 1019.2 1019.1 0.0
20/09:30am 19.2 17.4 12.2 64 3.9 SSE 13 15 7 8 1019.3 1019.2 0.0
20/09:00am 17.3 15.5 12.2 72 2.8 SSE 13 15 7 8 1019.4 1019.3 0.0
20/08:30am 15.5 14.1 12.3 81 1.8 SE 11 15 6 8 1019.4 1019.3 0.0
20/08:00am 14.1 13.1 12.3 89 1.0 SE 9 13 5 7 1019.2 1019.1 0.0
20/07:30am 12.4 11.1 11.1 92 0.7 SE 9 11 5 6 1018.9 1018.8 0.0
20/07:00am 11.1 9.8 9.9 92 0.6 SE 7 9 4 5 1018.6 1018.5 0.0
20/06:38am 11.5 9.5 10.2 92 0.7 SE 11 11 6 6 1018.3 1018.2 0.0
20/06:30am 11.4 9.4 10.0 91 0.7 SE 11 13 6 7 1018.3 1018.2 0.0
20/06:00am 11.8 10.6 10.2 90 0.8 SSE 7 9 4 5 1018.1 1018.0 0.0
20/05:30am 12.0 10.8 10.4 90 0.8 ESE 7 9 4 5 1017.9 1017.8 0.0
20/05:00am 12.9 10.5 11.3 90 0.8 SE 15 17 8 9 1017.8 1017.7 0.0
20/04:30am 12.4 10.5 10.6 89 0.9 SE 11 13 6 7 1017.8 1017.7 0.0
20/04:00am 12.6 10.8 10.8 89 0.9 SE 11 13 6 7 1017.5 1017.4 0.0
20/03:30am 12.9 11.2 11.1 89 0.9 SE 11 13 6 7 1017.6 1017.5 0.0
20/03:00am 13.1 11.8 11.2 88 1.0 SE 9 11 5 6 1017.6 1017.5 0.0
20/02:30am 13.6 11.6 11.5 87 1.1 SSE 13 15 7 8 1017.6 1017.5 0.0
20/02:00am 13.5 12.7 11.0 85 1.3 ESE 6 9 3 5 1018.0 1017.9 0.0
20/01:30am 14.4 12.5 11.7 84 1.5 SSE 13 15 7 8 1018.1 1018.0 0.0
20/01:00am 14.5 13.3 11.5 82 1.6 SE 9 11 5 6 1018.2 1018.1 0.0
20/12:30am 15.6 14.2 12.2 80 1.9 SE 11 13 6 7 1018.4 1018.3 0.0
20/12:00am 16.0 13.8 12.2 78 2.1 SE 15 19 8 10 1018.4 1018.3 0.0
 
Date/Time
WST
Temp
°C
App
Temp
°C
Dew
Point
°C
Rel
Hum
%
Delta-T
°C
Wind Press
QNH
hPa
Press
MSL
hPa
Rain since
9am
mm
Dir  Spd
km/h
Gust
km/h
Spd
kts
Gust
kts
19/11:30pm 16.5 14.0 12.3 76 2.3 SE 17 20 9 11 1018.4 1018.3 0.0
19/11:00pm 17.3 13.9 12.4 73 2.7 SE 22 28 12 15 1018.6 1018.5 0.0
19/10:30pm 18.0 13.5 12.5 70 3.1 SSE 28 37 15 20 1018.5 1018.4 0.0
19/10:00pm 18.2 15.5 13.5 74 2.7 SE 20 26 11 14 1018.2 1018.1 0.0
19/09:30pm 19.1 15.5 14.1 73 2.9 SSE 26 32 14 17 1017.9 1017.8 0.0
19/09:00pm 19.7 15.5 14.7 73 2.9 SSE 30 37 16 20 1017.8 1017.7 0.0
19/08:30pm 20.1 16.1 15.1 73 2.9 SSE 30 39 16 21 1017.7 1017.6 0.0
19/08:00pm 20.6 16.9 16.0 75 2.8 S 30 41 16 22 1017.4 1017.3 0.0
19/07:30pm 20.8 16.7 16.0 74 2.9 S 32 39 17 21 1017.3 1017.2 0.0
19/07:00pm 21.0 17.7 16.0 73 3.0 S 28 39 15 21 1017.0 1016.9 0.0
19/06:30pm 21.1 17.6 15.6 71 3.3 S 28 37 15 20 1016.8 1016.7 0.0
19/06:00pm 21.6 17.0 15.2 67 3.8 S 33 43 18 23 1016.6 1016.5 0.0
19/05:30pm 22.3 17.4 14.2 60 4.7 S 33 46 18 25 1016.5 1016.4 0.0
19/05:00pm 23.2 17.0 12.5 51 6.1 S 37 48 20 26 1016.3 1016.2 0.0
19/04:30pm 24.3 16.8 10.9 43 7.5 S 41 48 22 26 1016.2 1016.1 0.0
19/04:00pm 24.4 16.7 11.4 44 7.3 S 43 52 23 28 1016.1 1016.0 0.0
19/03:30pm 24.3 18.2 12.9 49 6.6 S 37 48 20 26 1016.0 1015.9 0.0
19/03:00pm 24.8 17.3 12.7 47 7.0 S 44 52 24 28 1015.9 1015.8 0.0
19/02:30pm 25.5 18.2 10.1 38 8.5 S 39 46 21 25 1015.9 1015.8 0.0
19/02:00pm 24.6 17.6 11.2 43 7.5 S 39 52 21 28 1015.9 1015.8 0.0
19/01:30pm 23.9 18.3 13.4 51 6.1 SSW 35 44 19 24 1016.1 1016.0 0.0
19/01:00pm 25.4 21.0 12.9 45 7.3 S 28 35 15 19 1016.2 1016.1 0.0
19/12:30pm 24.0 19.2 11.7 46 7.0 S 28 33 15 18 1016.6 1016.5 0.0
19/12:00pm 25.7 20.4 9.9 37 8.7 SSE 28 35 15 19 1017.1 1017.0 0.0
19/11:30am 25.1 18.9 9.4 37 8.6 S 32 39 17 21 1017.5 1017.4 0.0
19/11:00am 24.2 18.0 10.1 41 7.7 S 33 41 18 22 1017.9 1017.8 0.0
19/10:30am 23.5 17.2 9.1 40 7.8 SSE 32 39 17 21 1018.0 1017.9 0.0
19/10:00am 22.9 17.2 8.2 39 7.8 S 28 35 15 19 1018.1 1018.0 0.0
19/09:30am 22.4 17.5 8.5 41 7.4 SSE 24 30 13 16 1018.1 1018.0 0.0
19/09:00am 20.1 16.1 9.1 49 5.8 SSE 20 24 11 13 1018.3 1018.2 0.0
19/08:30am 18.7 14.1 9.5 55 4.9 SSE 24 30 13 16 1018.3 1018.2 0.0
19/08:00am 17.3 13.7 9.7 61 4.0 SE 19 26 10 14 1018.1 1018.0 0.0
19/07:30am 15.8 13.0 9.9 68 3.1 SE 15 20 8 11 1018.1 1018.0 0.0
19/07:00am 14.4 11.0 9.0 70 2.7 SSE 17 20 9 11 1018.0 1017.9 0.0
19/06:30am 14.8 10.8 9.0 68 3.0 SE 20 24 11 13 1017.7 1017.6 0.0
19/06:00am 14.7 11.3 9.3 70 2.8 SE 17 19 9 10 1017.6 1017.5 0.0
19/05:30am 14.5 11.1 9.1 70 2.8 SSE 17 20 9 11 1017.4 1017.3 0.0
19/05:00am 15.5 11.7 9.2 66 3.2 SSE 19 20 10 11 1017.0 1016.9 0.0
19/04:30am 16.1 13.1 9.1 63 3.6 SE 15 17 8 9 1016.8 1016.7 0.0
19/04:00am 16.7 13.3 9.1 61 3.9 SSE 17 20 9 11 1016.9 1016.8 0.0
19/03:30am 17.1 13.5 9.8 62 3.8 SE 19 22 10 12 1017.0 1016.9 0.0
19/03:00am 16.9 13.8 10.3 65 3.5 SE 17 19 9 10 1017.1 1017.0 0.0
19/02:30am 16.2 13.0 10.1 67 3.2 SSE 17 19 9 10 1017.2 1017.1 0.0
19/02:00am 16.5 13.7 9.9 65 3.5 SSE 15 15 8 8 1017.3 1017.2 0.0
19/01:30am 17.2 13.9 9.6 61 4.0 SE 17 20 9 11 1017.3 1017.2 0.0
19/01:00am 17.6 14.3 9.5 59 4.2 SSE 17 20 9 11 1017.6 1017.5 0.0
19/12:30am 17.5 14.9 9.4 59 4.2 ESE 13 15 7 8 1017.9 1017.8 0.0
19/12:00am 18.0 15.1 9.6 58 4.4 SSE 15 19 8 10 1017.7 1017.6 0.0
 
Date/Time
WST
Temp
°C
App
Temp
°C
Dew
Point
°C
Rel
Hum
%
Delta-T
°C
Wind Press
QNH
hPa
Press
MSL
hPa
Rain since
9am
mm
Dir  Spd
km/h
Gust
km/h
Spd
kts
Gust
kts
18/11:30pm 18.6 15.6 9.4 55 4.8 SSE 15 20 8 11 1018.0 1017.9 0.0
18/11:00pm 19.6 15.3 9.2 51 5.5 SSE 22 28 12 15 1018.1 1018.0 0.0
18/10:30pm 20.2 16.4 9.7 51 5.6 SSE 20 24 11 13 1018.3 1018.2 0.0
18/10:00pm 20.5 16.9 12.0 58 4.7 SSE 22 26 12 14 1018.2 1018.1 0.0
18/09:30pm 20.6 18.1 14.0 66 3.8 SSE 20 26 11 14 1018.1 1018.0 0.0
18/09:00pm 21.3 18.3 14.7 66 3.9 SSE 24 32 13 17 1018.0 1017.9 0.0
18/08:30pm 21.9 18.4 14.5 63 4.3 SSE 26 32 14 17 1017.8 1017.7 0.0
18/08:00pm 22.6 18.8 14.7 61 4.7 SSE 28 37 15 20 1017.7 1017.6 0.0
18/07:30pm 22.9 18.8 15.0 61 4.7 SSE 30 37 16 20 1017.7 1017.6 0.0
18/07:00pm 23.3 19.8 15.4 61 4.7 SSE 28 39 15 21 1017.5 1017.4 0.0
18/06:30pm 23.4 19.9 15.5 61 4.8 SSE 28 35 15 19 1017.3 1017.2 0.0
18/06:00pm 24.0 20.3 15.0 57 5.4 SSE 28 33 15 18 1017.0 1016.9 0.0
18/05:30pm 24.8 20.0 14.6 53 6.1 S 33 43 18 23 1016.8 1016.7 0.0
18/05:00pm 26.0 20.9 13.8 47 7.2 S 33 44 18 24 1016.7 1016.6 0.0
18/04:30pm 26.6 21.3 12.6 42 8.1 S 32 43 17 23 1016.7 1016.6 0.0
18/04:00pm 27.0 20.9 11.9 39 8.7 S 35 46 19 25 1016.6 1016.5 0.0
18/03:30pm 27.2 20.8 12.0 38 8.8 S 37 46 20 25 1016.6 1016.5 0.0
18/03:00pm 28.2 22.1 11.7 36 9.5 S 35 43 19 23 1016.5 1016.4 0.0
18/02:30pm 28.3 22.8 11.8 36 9.5 S 32 46 17 25 1016.6 1016.5 0.0
18/02:00pm 29.3 23.2 9.9 30 10.9 SSW 32 39 17 21 1016.7 1016.6 0.0
18/01:30pm 29.3 23.8 10.4 31 10.7 SSW 30 39 16 21 1017.1 1017.0 0.0
18/01:00pm 29.6 24.0 8.6 27 11.6 S 28 35 15 19 1017.4 1017.3 0.0
18/12:30pm 29.8 25.1 9.3 28 11.5 SW 24 30 13 16 1017.9 1017.8 0.0
18/12:00pm 30.7 26.2 4.4 19 13.6 ESE 17 22 9 12 1018.5 1018.4 0.0
18/11:30am 29.7 26.0 4.4 20 13.0 SE 13 22 7 12 1019.0 1018.9 0.0
18/11:00am 29.4 25.5 5.5 22 12.5 ESE 15 19 8 10 1019.4 1019.3 0.0
18/10:30am 28.0 25.4 6.2 25 11.5 SE 9 13 5 7 1019.8 1019.7 0.0
18/10:00am 25.9 23.3 6.0 28 10.3 S 9 15 5 8 1020.2 1020.1 0.0
18/09:30am 24.6 21.5 5.4 29 9.7 SE 11 15 6 8 1020.5 1020.4 0.0
18/09:00am 23.3 21.0 5.7 32 8.9 SSE 7 11 4 6 1020.7 1020.6 0.0
18/08:30am 22.3 19.6 5.7 34 8.3 E 9 15 5 8 1020.9 1020.8 0.0
18/08:00am 20.8 18.6 6.4 39 7.2 SSE 7 13 4 7 1020.7 1020.6 0.0
18/07:30am 19.5 16.8 5.6 40 6.8 SSW 9 15 5 8 1020.7 1020.6 0.0
18/07:00am 19.7 15.1 5.4 39 7.0 ENE 19 30 10 16 1020.3 1020.2 0.0
18/06:30am 18.3 16.2 5.8 44 6.1 NE 6 20 3 11 1020.5 1020.4 0.0
18/06:00am 18.6 14.1 6.1 44 6.2 ENE 19 28 10 15 1020.4 1020.3 0.0
18/05:30am 18.5 15.1 5.7 43 6.3 E 13 22 7 12 1020.2 1020.1 0.0
18/05:00am 18.0 16.4 6.2 46 5.8 SSW 4 13 2 7 1020.2 1020.1 0.0
18/04:30am 18.1 16.4 6.0 45 5.9 S 4 9 2 5 1020.0 1019.9 0.0
18/04:00am 18.4 16.7 5.9 44 6.1 NW 4 7 2 4 1019.9 1019.8 0.0
18/03:30am 19.9 15.1 5.5 39 7.1 E 20 32 11 17 1019.8 1019.7 0.0
18/03:00am 19.8 15.9 5.5 39 7.0 ESE 15 24 8 13 1020.0 1019.9 0.0
18/02:30am 19.2 15.8 6.0 42 6.5 SE 13 19 7 10 1020.2 1020.1 0.0
18/02:00am 18.1 15.3 6.9 48 5.6 SE 11 15 6 8 1020.4 1020.3 0.0
18/01:30am 17.8 15.0 7.0 49 5.4 SSE 11 13 6 7 1020.6 1020.5 0.0
18/01:00am 18.0 15.2 7.1 49 5.5 SSE 11 13 6 7 1020.7 1020.6 0.0
18/12:30am 18.8 15.2 6.9 46 6.0 SSE 15 20 8 11 1020.8 1020.7 0.0
18/12:00am 19.1 15.5 6.9 45 6.1 SE 15 17 8 9 1020.7 1020.6 0.0
 
Date/Time
WST
Temp
°C
App
Temp
°C
Dew
Point
°C
Rel
Hum
%
Delta-T
°C
Wind Press
QNH
hPa
Press
MSL
hPa
Rain since
9am
mm
Dir  Spd
km/h
Gust
km/h
Spd
kts
Gust
kts
17/11:30pm 20.0 16.0 6.7 42 6.7 ESE 17 20 9 11 1021.1 1020.9 0.0
17/11:00pm 19.0 15.4 8.4 50 5.5 ESE 17 22 9 12 1021.2 1021.0 0.0
17/10:30pm 17.4 16.1 13.7 79 2.1 SE 13 15 7 8 1021.6 1021.4 0.0
17/10:00pm 17.7 16.8 14.8 83 1.7 SE 13 17 7 9 1021.6 1021.4 0.0
17/09:30pm 18.2 17.3 14.9 81 1.9 SSE 13 15 7 8 1021.7 1021.5 0.0
17/09:00pm 18.9 18.1 15.0 78 2.3 SSE 13 15 7 8 1021.8 1021.6 0.0
17/08:30pm 20.5 19.6 15.9 75 2.8 SE 15 17 8 9 1021.6 1021.4 0.0
17/08:00pm 21.2 19.7 15.3 69 3.5 SSE 17 20 9 11 1021.6 1021.4 0.0
17/07:30pm 22.1 19.9 15.0 64 4.2 SSE 20 26 11 14 1021.3 1021.1 0.0
17/07:00pm 22.5 19.6 14.1 59 4.9 SSE 22 28 12 15 1020.8 1020.7 0.0
17/06:30pm 23.0 19.7 14.0 57 5.3 SSE 24 30 13 16 1020.7 1020.6 0.0
17/06:00pm 23.6 20.4 14.3 56 5.5 SSE 24 30 13 16 1020.4 1020.3 0.0
17/05:30pm 25.0 19.6 12.9 47 7.0 S 33 43 18 23 1020.0 1019.9 0.0
17/05:00pm 26.5 20.3 9.4 34 9.4 S 32 41 17 22 1019.6 1019.5 0.0
17/04:30pm 27.7 21.3 8.6 30 10.4 S 32 39 17 21 1019.5 1019.4 0.0
17/04:00pm 28.7 21.3 2.1 18 13.0 S 30 37 16 20 1019.4 1019.3 0.0
17/03:30pm 29.5 22.0 3.5 19 13.2 S 32 39 17 21 1019.1 1019.0 0.0
17/03:00pm 30.4 25.5 4.9 20 13.3 SSE 20 33 11 18 1019.2 1019.1 0.0

Other formats

Comma delimited format used in spreadsheet applications
http://www.bom.gov.au/fwo/IDW60801/IDW60801.94403.axf

JavaScript Object Notation format (JSON) in row-major order
http://www.bom.gov.au/fwo/IDW60801/IDW60801.94403.json

Data quality

Most of these data are generated automatically and are frequently updated. Quality checks on data are not normally performed. It is possible for incorrect values to appear. Refer to information at About Latest Weather Observations and please check the disclaimer before using these data.